Time;durP1;ratioP1;P1;durP2;ratioP2;P2;SDS_P1;SDS_P2;PMS_P1;PMS_P2;Temp;Humidity;BMP_temperature;BMP_pressure;BME280_temperature;BME280_humidity;BME280_pressure;Samples;Min_cycle;Max_cycle;Signal;HPM_P1;HPM_P2
2022/08/09 00:00:23;;;;;;;0.85;0.50;;;;;;;;;;5107755;28;20024;-85
2022/08/09 00:02:49;;;;;;;0.93;0.80;;;;;;;;;;5095023;28;20020;-80
2022/08/09 00:05:14;;;;;;;0.73;0.50;;;;;;;;;;5076468;28;20077;-84
2022/08/09 00:07:42;;;;;;;5.63;0.52;;;;;;;;;;5097359;28;20032;-82
2022/08/09 00:10:10;;;;;;;1.38;0.63;;;;;;;;;;5096377;28;20031;-84
2022/08/09 00:12:38;;;;;;;1.27;0.77;;;;;;;;;;5114369;28;20157;-84
2022/08/09 00:15:14;;;;;;;0.52;0.47;;;;;;;;;;5087804;28;20023;-86
2022/08/09 00:17:39;;;;;;;0.55;0.43;;;;;;;;;;5096398;28;20028;-88
2022/08/09 00:20:11;;;;;;;1.17;0.40;;;;;;;;;;5061905;28;20353;-86
2022/08/09 00:22:39;;;;;;;1.77;0.85;;;;;;;;;;5083271;28;20027;-87
2022/08/09 00:25:05;;;;;;;0.50;0.50;;;;;;;;;;5075638;28;20511;-87
2022/08/09 00:27:32;;;;;;;0.88;0.28;;;;;;;;;;5118897;28;20026;-87
2022/08/09 00:29:58;;;;;;;0.65;0.30;;;;;;;;;;5107877;28;20077;-86
2022/08/09 00:32:25;;;;;;;0.35;0.30;;;;;;;;;;5095675;28;20032;-87
2022/08/09 00:34:51;;;;;;;0.90;0.63;;;;;;;;;;5097323;28;20019;-88
2022/08/09 00:37:18;;;;;;;0.40;0.40;;;;;;;;;;5111246;28;20091;-85
2022/08/09 00:39:51;;;;;;;0.57;0.30;;;;;;;;;;5109460;28;20491;-85
2022/08/09 00:42:16;;;;;;;1.75;0.63;;;;;;;;;;5079239;28;20035;-87
2022/08/09 00:44:49;;;;;;;0.30;0.20;;;;;;;;;;5094749;28;20024;-89
2022/08/09 00:47:14;;;;;;;0.40;0.40;;;;;;;;;;5095043;28;20046;-87
2022/08/09 00:49:42;;;;;;;0.50;0.20;;;;;;;;;;5095338;28;20024;-85
2022/08/09 00:52:08;;;;;;;0.77;0.65;;;;;;;;;;5067856;28;20115;-87
2022/08/09 00:54:33;;;;;;;0.88;0.85;;;;;;;;;;5087480;28;20453;-84
2022/08/09 00:57:01;;;;;;;1.02;0.82;;;;;;;;;;5075178;28;20036;-84
2022/08/09 00:59:26;;;;;;;0.50;0.30;;;;;;;;;;5093608;28;20027;-86
2022/08/09 01:01:52;;;;;;;0.70;0.47;;;;;;;;;;5102860;28;20028;-84
2022/08/09 01:04:29;;;;;;;1.48;0.50;;;;;;;;;;5074098;28;20035;-85
2022/08/09 01:07:05;;;;;;;0.68;0.40;;;;;;;;;;5094496;28;20332;-84
2022/08/09 01:09:42;;;;;;;6.18;0.43;;;;;;;;;;5100452;28;20028;-84
2022/08/09 01:12:33;;;;;;;1.10;0.65;;;;;;;;;;5104420;28;20035;-84
2022/08/09 01:15:02;;;;;;;0.40;0.40;;;;;;;;;;5111432;28;20024;-86
2022/08/09 01:17:37;;;;;;;0.10;0.10;;;;;;;;;;5113228;28;20035;-85
2022/08/09 01:20:14;;;;;;;0.75;0.70;;;;;;;;;;5109863;28;20024;-85
2022/08/09 01:22:58;;;;;;;0.22;0.22;;;;;;;;;;5112885;28;20034;-86
2022/08/09 01:25:26;;;;;;;0.30;0.30;;;;;;;;;;5079433;28;20019;-86
2022/08/09 01:27:53;;;;;;;0.22;0.22;;;;;;;;;;5100572;28;20023;-84
2022/08/09 01:30:25;;;;;;;0.38;0.30;;;;;;;;;;5083781;28;20115;-83
2022/08/09 01:32:57;;;;;;;1.42;0.35;;;;;;;;;;5108954;28;20027;-88
2022/08/09 01:35:29;;;;;;;1.98;0.55;;;;;;;;;;5070149;28;20027;-88
2022/08/09 01:37:57;;;;;;;0.40;0.40;;;;;;;;;;5094770;28;20114;-86
2022/08/09 01:40:23;;;;;;;0.75;0.70;;;;;;;;;;5076221;28;20028;-83
2022/08/09 01:42:49;;;;;;;6.70;1.05;;;;;;;;;;5093745;28;20031;-82
2022/08/09 01:45:26;;;;;;;1.00;0.85;;;;;;;;;;5092010;28;20421;-82
2022/08/09 01:47:55;;;;;;;1.45;0.73;;;;;;;;;;5075349;28;20456;-86
2022/08/09 01:50:22;;;;;;;1.13;0.45;;;;;;;;;;5083520;28;20102;-86
2022/08/09 01:52:48;;;;;;;0.50;0.50;;;;;;;;;;5088710;28;20019;-86
2022/08/09 01:55:14;;;;;;;0.45;0.40;;;;;;;;;;5092249;28;20609;-83
2022/08/09 01:57:41;;;;;;;0.32;0.30;;;;;;;;;;5094930;28;20024;-84
2022/08/09 02:00:10;;;;;;;2.33;0.43;;;;;;;;;;5083134;28;20113;-81
2022/08/09 02:02:42;;;;;;;0.20;0.20;;;;;;;;;;5093696;28;20093;-84
2022/08/09 02:05:09;;;;;;;1.75;0.88;;;;;;;;;;5095643;28;20107;-84
2022/08/09 02:07:38;;;;;;;0.75;0.40;;;;;;;;;;5085026;28;20175;-85
2022/08/09 02:10:10;;;;;;;0.90;0.90;;;;;;;;;;5104005;28;20031;-84
2022/08/09 02:12:36;;;;;;;0.85;0.60;;;;;;;;;;5097042;28;20127;-87
2022/08/09 02:15:04;;;;;;;0.95;0.65;;;;;;;;;;5095031;28;20089;-87
2022/08/09 02:17:30;;;;;;;0.68;0.35;;;;;;;;;;5097156;28;20027;-87
2022/08/09 02:19:56;;;;;;;0.32;0.30;;;;;;;;;;5091985;28;20089;-87
2022/08/09 02:22:29;;;;;;;1.67;1.08;;;;;;;;;;5079827;28;20028;-88
2022/08/09 02:24:56;;;;;;;0.40;0.40;;;;;;;;;;5076992;28;20107;-86
2022/08/09 02:27:23;;;;;;;0.38;0.28;;;;;;;;;;5097842;28;20052;-85
2022/08/09 02:29:50;;;;;;;0.85;0.47;;;;;;;;;;5096876;28;20080;-87
2022/08/09 02:32:19;;;;;;;0.63;0.50;;;;;;;;;;5074507;28;20024;-90
2022/08/09 02:34:50;;;;;;;0.32;0.20;;;;;;;;;;5091010;28;20020;-86
2022/08/09 02:37:17;;;;;;;0.70;0.45;;;;;;;;;;5082154;28;20035;-86
2022/08/09 02:39:57;;;;;;;0.20;0.20;;;;;;;;;;5077715;28;20039;-85
2022/08/09 02:42:30;;;;;;;0.68;0.50;;;;;;;;;;5082738;28;20047;-85
2022/08/09 02:45:07;;;;;;;2.72;1.13;;;;;;;;;;5107425;28;20004;-83
2022/08/09 02:47:33;;;;;;;1.25;0.85;;;;;;;;;;5104775;28;20088;-88
2022/08/09 02:50:24;;;;;;;0.38;0.38;;;;;;;;;;5079061;28;20032;-83
2022/08/09 02:52:59;;;;;;;0.55;0.40;;;;;;;;;;5097372;28;20027;-87
2022/08/09 02:55:25;;;;;;;0.68;0.50;;;;;;;;;;5093984;28;20051;-84
2022/08/09 02:57:53;;;;;;;0.75;0.30;;;;;;;;;;5098363;28;20082;-86
2022/08/09 03:00:18;;;;;;;1.15;0.63;;;;;;;;;;5111228;28;20023;-86
2022/08/09 03:02:49;;;;;;;1.27;0.90;;;;;;;;;;5100597;28;20035;-85
2022/08/09 03:05:20;;;;;;;0.57;0.38;;;;;;;;;;5066181;28;20114;-80
2022/08/09 03:07:48;;;;;;;0.40;0.40;;;;;;;;;;5066871;28;20465;-85
2022/08/09 03:10:17;;;;;;;0.55;0.47;;;;;;;;;;5089418;28;20034;-84
2022/08/09 03:12:43;;;;;;;0.50;0.30;;;;;;;;;;5080310;28;20031;-84
2022/08/09 03:15:13;;;;;;;0.90;0.70;;;;;;;;;;5091106;28;20046;-85
2022/08/09 03:17:38;;;;;;;0.45;0.35;;;;;;;;;;5098426;28;20027;-85
2022/08/09 03:20:06;;;;;;;0.60;0.60;;;;;;;;;;5097925;28;20019;-84
2022/08/09 03:22:38;;;;;;;0.55;0.47;;;;;;;;;;5085990;28;20031;-84
2022/08/09 03:25:06;;;;;;;0.90;0.80;;;;;;;;;;5097794;28;20024;-85
2022/08/09 03:27:33;;;;;;;0.88;0.82;;;;;;;;;;5096894;28;20046;-83
2022/08/09 03:30:01;;;;;;;0.63;0.50;;;;;;;;;;5081780;28;20077;-84
2022/08/09 03:32:30;;;;;;;0.95;0.43;;;;;;;;;;5097715;28;20055;-85
2022/08/09 03:34:57;;;;;;;0.60;0.40;;;;;;;;;;5078160;28;20039;-85
2022/08/09 03:37:25;;;;;;;0.22;0.22;;;;;;;;;;5092076;28;20107;-85
2022/08/09 03:39:50;;;;;;;0.73;0.73;;;;;;;;;;5107023;28;20027;-87
2022/08/09 03:42:16;;;;;;;0.68;0.65;;;;;;;;;;5116466;28;20030;-86
2022/08/09 03:44:41;;;;;;;2.00;0.90;;;;;;;;;;5093447;28;20067;-85
2022/08/09 03:47:06;;;;;;;1.92;0.52;;;;;;;;;;5079377;28;20032;-86
2022/08/09 03:49:33;;;;;;;2.58;1.15;;;;;;;;;;5096153;28;20027;-84
2022/08/09 03:51:59;;;;;;;1.08;0.80;;;;;;;;;;5079514;28;20176;-86
2022/08/09 03:54:28;;;;;;;0.70;0.63;;;;;;;;;;5058222;28;20709;-85
2022/08/09 03:56:53;;;;;;;0.47;0.47;;;;;;;;;;5078518;28;20027;-86
2022/08/09 03:59:19;;;;;;;3.38;0.70;;;;;;;;;;5088979;28;20104;-86
2022/08/09 04:01:48;;;;;;;2.35;0.80;;;;;;;;;;5076645;28;20110;-83
2022/08/09 04:04:15;;;;;;;0.82;0.70;;;;;;;;;;5088296;28;20035;-86
2022/08/09 04:06:42;;;;;;;1.02;0.80;;;;;;;;;;5088319;28;20028;-85
2022/08/09 04:09:12;;;;;;;2.20;0.75;;;;;;;;;;5078269;28;20063;-87
2022/08/09 04:12:13;;;;;;;0.63;0.55;;;;;;;;;;5096835;28;20016;-86
2022/08/09 04:14:39;;;;;;;4.65;0.75;;;;;;;;;;5065486;28;20088;-86
2022/08/09 04:17:05;;;;;;;1.08;0.98;;;;;;;;;;5096409;28;20031;-80
2022/08/09 04:19:33;;;;;;;1.45;0.93;;;;;;;;;;5091870;28;20492;-85
2022/08/09 04:21:59;;;;;;;8.18;0.80;;;;;;;;;;5096368;28;20020;-79
2022/08/09 04:24:25;;;;;;;0.98;0.70;;;;;;;;;;5075312;28;20100;-87
2022/08/09 04:26:51;;;;;;;1.13;0.52;;;;;;;;;;5092283;28;20443;-86
2022/08/09 04:29:17;;;;;;;1.77;0.57;;;;;;;;;;5078854;28;20033;-85
2022/08/09 04:31:42;;;;;;;1.25;0.70;;;;;;;;;;5083676;28;20020;-86
2022/08/09 04:34:10;;;;;;;1.65;0.77;;;;;;;;;;5115659;28;20030;-84
2022/08/09 04:36:35;;;;;;;1.90;0.90;;;;;;;;;;5095082;28;20023;-87
2022/08/09 04:39:04;;;;;;;0.98;0.60;;;;;;;;;;5097023;28;20118;-85
2022/08/09 04:41:30;;;;;;;0.65;0.45;;;;;;;;;;5105188;28;20112;-80
2022/08/09 04:43:56;;;;;;;1.17;0.90;;;;;;;;;;5099216;28;20114;-86
2022/08/09 04:46:24;;;;;;;0.55;0.38;;;;;;;;;;5087577;28;20411;-86
2022/08/09 04:48:49;;;;;;;0.80;0.80;;;;;;;;;;5098616;28;20027;-86
2022/08/09 04:51:15;;;;;;;1.00;0.65;;;;;;;;;;5115987;28;20035;-85
2022/08/09 04:53:41;;;;;;;1.95;0.82;;;;;;;;;;5059151;28;20028;-85
2022/08/09 04:56:08;;;;;;;1.65;1.23;;;;;;;;;;5113705;28;20443;-84
2022/08/09 04:58:34;;;;;;;0.75;0.60;;;;;;;;;;5108857;28;20032;-83
2022/08/09 05:01:02;;;;;;;1.60;0.68;;;;;;;;;;5099132;28;20345;-85
2022/08/09 05:03:30;;;;;;;7.47;1.13;;;;;;;;;;5094394;28;20015;-86
2022/08/09 05:05:58;;;;;;;1.75;0.38;;;;;;;;;;5079369;28;20342;-85
2022/08/09 05:08:28;;;;;;;1.05;0.75;;;;;;;;;;5064415;28;20059;-85
2022/08/09 05:10:53;;;;;;;1.98;0.80;;;;;;;;;;5084672;28;20103;-86
2022/08/09 05:13:18;;;;;;;3.47;1.15;;;;;;;;;;5095166;28;20052;-85
2022/08/09 05:15:44;;;;;;;0.40;0.40;;;;;;;;;;5105046;28;20028;-86
2022/08/09 05:18:09;;;;;;;3.88;1.15;;;;;;;;;;5095237;28;20044;-85
2022/08/09 05:20:34;;;;;;;3.08;1.10;;;;;;;;;;5098249;28;20038;-84
2022/08/09 05:23:00;;;;;;;1.55;1.45;;;;;;;;;;5108512;28;20027;-77
2022/08/09 05:25:25;;;;;;;2.53;1.60;;;;;;;;;;5098301;28;20029;-85
2022/08/09 05:27:53;;;;;;;1.67;1.33;;;;;;;;;;5092345;28;20034;-84
2022/08/09 05:30:21;;;;;;;1.05;0.68;;;;;;;;;;5101869;28;20064;-85
2022/08/09 05:32:49;;;;;;;1.05;0.65;;;;;;;;;;5112741;28;20027;-85
2022/08/09 05:35:14;;;;;;;2.25;0.85;;;;;;;;;;5111403;28;20096;-84
2022/08/09 05:37:40;;;;;;;2.67;1.40;;;;;;;;;;5075358;28;20341;-87
2022/08/09 05:40:06;;;;;;;1.15;0.70;;;;;;;;;;5094738;28;20020;-83
2022/08/09 05:42:32;;;;;;;0.52;0.52;;;;;;;;;;5096022;28;20055;-86
2022/08/09 05:44:58;;;;;;;1.52;1.10;;;;;;;;;;5096252;28;20024;-87
2022/08/09 05:47:24;;;;;;;2.10;1.10;;;;;;;;;;5071045;28;20114;-85
2022/08/09 05:49:53;;;;;;;0.50;0.50;;;;;;;;;;5093581;28;20111;-86
2022/08/09 05:52:18;;;;;;;2.95;0.95;;;;;;;;;;5075384;28;20099;-85
2022/08/09 05:54:44;;;;;;;0.95;0.95;;;;;;;;;;5094203;28;20128;-87
2022/08/09 05:57:09;;;;;;;1.17;0.82;;;;;;;;;;5086253;28;20032;-84
2022/08/09 05:59:34;;;;;;;1.00;0.90;;;;;;;;;;5097375;28;20119;-87
2022/08/09 06:02:00;;;;;;;0.70;0.60;;;;;;;;;;5093966;28;20097;-89
2022/08/09 06:04:25;;;;;;;4.85;1.35;;;;;;;;;;5111135;28;20031;-86
2022/08/09 06:06:50;;;;;;;1.00;0.88;;;;;;;;;;5094123;28;20097;-85
2022/08/09 06:09:18;;;;;;;1.00;0.82;;;;;;;;;;5106003;28;20030;-82
2022/08/09 06:11:43;;;;;;;0.40;0.32;;;;;;;;;;5096858;28;20085;-80
2022/08/09 06:14:08;;;;;;;1.48;1.17;;;;;;;;;;5092910;28;20027;-84
2022/08/09 06:16:34;;;;;;;4.30;0.90;;;;;;;;;;5095396;28;20180;-86
2022/08/09 06:18:59;;;;;;;2.58;0.80;;;;;;;;;;5098394;28;20035;-88
2022/08/09 06:21:25;;;;;;;3.45;1.35;;;;;;;;;;5058683;28;20490;-84
2022/08/09 06:23:51;;;;;;;1.00;0.75;;;;;;;;;;5090836;28;20024;-83
2022/08/09 06:26:18;;;;;;;1.05;0.93;;;;;;;;;;5078962;28;20027;-85
2022/08/09 06:28:43;;;;;;;1.30;0.98;;;;;;;;;;5096688;28;20028;-87
2022/08/09 06:31:11;;;;;;;1.75;1.00;;;;;;;;;;5081026;28;20021;-86
2022/08/09 06:33:39;;;;;;;3.60;0.70;;;;;;;;;;5083421;28;20031;-86
2022/08/09 06:36:04;;;;;;;1.60;0.95;;;;;;;;;;5090047;28;20107;-86
2022/08/09 06:38:32;;;;;;;3.78;1.50;;;;;;;;;;5095116;28;20062;-83
2022/08/09 06:41:02;;;;;;;0.73;0.73;;;;;;;;;;5094233;28;20055;-82
2022/08/09 06:43:27;;;;;;;3.47;0.90;;;;;;;;;;5094704;28;20032;-85
2022/08/09 06:45:53;;;;;;;1.77;0.95;;;;;;;;;;5083853;28;20031;-84
2022/08/09 06:48:21;;;;;;;0.55;0.50;;;;;;;;;;5071893;28;20046;-82
2022/08/09 06:50:46;;;;;;;6.28;2.60;;;;;;;;;;5091944;28;20028;-86
2022/08/09 06:53:16;;;;;;;0.82;0.70;;;;;;;;;;5095933;28;20036;-83
2022/08/09 06:55:42;;;;;;;1.23;1.13;;;;;;;;;;5056264;28;20028;-86
2022/08/09 06:58:10;;;;;;;2.67;1.38;;;;;;;;;;5086565;28;20069;-85
2022/08/09 07:00:36;;;;;;;3.47;1.35;;;;;;;;;;5073668;28;20043;-85
2022/08/09 07:03:01;;;;;;;1.70;1.13;;;;;;;;;;5093080;28;20097;-85
2022/08/09 07:05:27;;;;;;;1.63;0.73;;;;;;;;;;5094014;28;20028;-85
2022/08/09 07:07:55;;;;;;;1.08;0.95;;;;;;;;;;5093496;28;20032;-87
2022/08/09 07:10:23;;;;;;;1.33;0.85;;;;;;;;;;5094896;28;20039;-84
2022/08/09 07:12:58;;;;;;;1.13;0.95;;;;;;;;;;5097530;28;20040;-79
2022/08/09 07:15:23;;;;;;;0.95;0.88;;;;;;;;;;5096171;28;20345;-79
2022/08/09 07:17:49;;;;;;;5.35;1.30;;;;;;;;;;5097953;28;20016;-80
2022/08/09 07:20:15;;;;;;;1.20;0.70;;;;;;;;;;5098160;28;20024;-77
2022/08/09 07:22:43;;;;;;;1.23;0.65;;;;;;;;;;5100087;28;20488;-80
2022/08/09 07:25:11;;;;;;;2.30;1.60;;;;;;;;;;5095997;28;20028;-80
2022/08/09 07:27:40;;;;;;;0.60;0.60;;;;;;;;;;5077820;28;20028;-76
2022/08/09 07:30:12;;;;;;;0.95;0.70;;;;;;;;;;5095579;28;20028;-76
2022/08/09 07:32:40;;;;;;;1.58;0.68;;;;;;;;;;5079972;28;20099;-74
2022/08/09 07:35:08;;;;;;;0.50;0.50;;;;;;;;;;5089082;28;20032;-75
2022/08/09 07:37:34;;;;;;;1.27;0.88;;;;;;;;;;5079051;28;20032;-76
2022/08/09 07:40:01;;;;;;;1.15;0.93;;;;;;;;;;5097099;28;20046;-76
2022/08/09 07:42:27;;;;;;;0.63;0.63;;;;;;;;;;5097194;28;20032;-76
2022/08/09 07:44:52;;;;;;;8.13;3.10;;;;;;;;;;5096638;28;20031;-75
2022/08/09 07:47:17;;;;;;;1.15;0.63;;;;;;;;;;5097151;28;20028;-75
2022/08/09 07:49:43;;;;;;;1.75;0.63;;;;;;;;;;5079325;28;20016;-76
2022/08/09 07:52:08;;;;;;;0.60;0.60;;;;;;;;;;5079400;28;20096;-76
2022/08/09 07:54:34;;;;;;;0.45;0.45;;;;;;;;;;5096657;28;20056;-75
2022/08/09 07:56:59;;;;;;;0.60;0.60;;;;;;;;;;5078681;28;20115;-76
2022/08/09 07:59:25;;;;;;;11.13;2.55;;;;;;;;;;5096859;28;20498;-75
2022/08/09 08:01:50;;;;;;;0.30;0.30;;;;;;;;;;5079076;28;20020;-75
2022/08/09 08:04:15;;;;;;;1.00;0.57;;;;;;;;;;5096833;28;20031;-75
2022/08/09 08:06:41;;;;;;;0.65;0.65;;;;;;;;;;5096847;28;20070;-75
2022/08/09 08:09:06;;;;;;;0.82;0.77;;;;;;;;;;5096789;28;20113;-75
2022/08/09 08:11:32;;;;;;;1.80;0.88;;;;;;;;;;5095968;28;20115;-75
2022/08/09 08:13:57;;;;;;;1.95;0.93;;;;;;;;;;5096189;28;20051;-77
2022/08/09 08:16:22;;;;;;;0.88;0.88;;;;;;;;;;5096475;28;20028;-77
2022/08/09 08:18:48;;;;;;;0.93;0.77;;;;;;;;;;5096527;28;20032;-75
2022/08/09 08:21:13;;;;;;;1.02;0.77;;;;;;;;;;5062360;28;20074;-74
2022/08/09 08:23:38;;;;;;;0.88;0.73;;;;;;;;;;5077599;28;20024;-75
2022/08/09 08:26:04;;;;;;;2.42;1.48;;;;;;;;;;5096480;28;20026;-74
2022/08/09 08:28:29;;;;;;;0.70;0.70;;;;;;;;;;5096522;28;20099;-75
2022/08/09 08:30:57;;;;;;;0.85;0.80;;;;;;;;;;5096323;28;20120;-73
2022/08/09 08:33:22;;;;;;;0.50;0.50;;;;;;;;;;5078282;28;20028;-74
2022/08/09 08:35:50;;;;;;;2.78;1.48;;;;;;;;;;5077877;28;20027;-74
2022/08/09 08:38:15;;;;;;;1.38;0.73;;;;;;;;;;5094946;28;20031;-75
2022/08/09 08:40:45;;;;;;;1.73;1.27;;;;;;;;;;5096166;28;20127;-75
2022/08/09 08:43:13;;;;;;;1.50;0.65;;;;;;;;;;5078457;28;20019;-75
2022/08/09 08:45:43;;;;;;;2.22;1.45;;;;;;;;;;5096083;28;20049;-76
2022/08/09 08:48:08;;;;;;;0.32;0.32;;;;;;;;;;5078295;28;20034;-75
2022/08/09 08:50:34;;;;;;;0.90;0.70;;;;;;;;;;5078199;28;20020;-76
2022/08/09 08:52:59;;;;;;;1.70;1.48;;;;;;;;;;5077825;28;20028;-76
2022/08/09 08:55:24;;;;;;;0.60;0.40;;;;;;;;;;5078097;28;20433;-75
2022/08/09 08:57:57;;;;;;;1.08;0.63;;;;;;;;;;5095435;28;20047;-76
2022/08/09 09:00:26;;;;;;;0.45;0.45;;;;;;;;;;5095800;28;20027;-76
2022/08/09 09:02:56;;;;;;;0.90;0.73;;;;;;;;;;5075219;28;20584;-76
2022/08/09 09:05:23;;;;;;;1.10;0.80;;;;;;;;;;5095719;28;20028;-76
2022/08/09 09:07:49;;;;;;;0.65;0.50;;;;;;;;;;5095554;28;20024;-75
2022/08/09 09:10:15;;;;;;;0.70;0.70;;;;;;;;;;5077799;28;20168;-74
2022/08/09 09:12:45;;;;;;;2.00;1.05;;;;;;;;;;5093119;28;20115;-75
2022/08/09 09:15:11;;;;;;;0.47;0.47;;;;;;;;;;5095810;28;20107;-75
2022/08/09 09:17:39;;;;;;;2.58;1.33;;;;;;;;;;5077182;28;20058;-76
2022/08/09 09:20:11;;;;;;;1.63;1.25;;;;;;;;;;5095447;28;20028;-76
2022/08/09 09:22:57;;;;;;;1.00;0.77;;;;;;;;;;5095658;28;20020;-74
2022/08/09 09:25:40;;;;;;;1.05;0.90;;;;;;;;;;5095374;28;20034;-75
2022/08/09 09:28:07;;;;;;;0.68;0.50;;;;;;;;;;5093153;28;20508;-75
2022/08/09 09:30:53;;;;;;;0.82;0.80;;;;;;;;;;5077561;28;20024;-75
2022/08/09 09:33:18;;;;;;;1.13;0.98;;;;;;;;;;5069072;28;20028;-76
2022/08/09 09:35:54;;;;;;;0.73;0.63;;;;;;;;;;5075260;28;20331;-75
2022/08/09 09:38:23;;;;;;;1.58;0.73;;;;;;;;;;5075624;28;20074;-74
2022/08/09 09:40:51;;;;;;;1.40;0.85;;;;;;;;;;5059132;28;20036;-76
2022/08/09 09:43:19;;;;;;;3.63;0.65;;;;;;;;;;5092688;28;20111;-75
2022/08/09 09:45:50;;;;;;;1.88;0.80;;;;;;;;;;5095002;28;20016;-76
2022/08/09 09:48:16;;;;;;;0.63;0.50;;;;;;;;;;5095057;28;20107;-76
2022/08/09 09:50:44;;;;;;;1.80;0.88;;;;;;;;;;5077210;28;20059;-75
2022/08/09 09:53:20;;;;;;;2.70;0.88;;;;;;;;;;5076287;28;20060;-76
2022/08/09 09:56:00;;;;;;;0.40;0.40;;;;;;;;;;5077645;28;20067;-75
2022/08/09 09:58:50;;;;;;;2.47;1.15;;;;;;;;;;5094934;28;20023;-76
2022/08/09 10:01:20;;;;;;;0.55;0.45;;;;;;;;;;5077547;28;20035;-75
2022/08/09 10:03:50;;;;;;;1.48;1.08;;;;;;;;;;5077698;28;20063;-75
2022/08/09 10:06:15;;;;;;;1.75;0.35;;;;;;;;;;5094636;28;20650;-75
2022/08/09 10:08:45;;;;;;;1.63;0.85;;;;;;;;;;5076638;28;20028;-75
2022/08/09 10:11:17;;;;;;;1.73;0.82;;;;;;;;;;5094895;28;20046;-75
2022/08/09 10:13:42;;;;;;;1.55;1.45;;;;;;;;;;5076853;28;20489;-74
2022/08/09 10:19:35;;;;;;;1.05;0.73;;;;;;;;;;5085371;28;20349;-74
2022/08/09 10:22:03;;;;;;;0.65;0.65;;;;;;;;;;5093106;28;20036;-75
2022/08/09 10:24:56;;;;;;;0.73;0.70;;;;;;;;;;5094495;28;20384;-74
2022/08/09 10:27:27;;;;;;;2.08;0.90;;;;;;;;;;5094865;28;20024;-75
2022/08/09 10:29:55;;;;;;;0.70;0.70;;;;;;;;;;5077434;28;20104;-76
2022/08/09 10:32:23;;;;;;;1.67;0.65;;;;;;;;;;5077292;28;20441;-74
2022/08/09 10:34:51;;;;;;;0.77;0.57;;;;;;;;;;5077235;28;20441;-75
2022/08/09 10:37:17;;;;;;;1.48;0.98;;;;;;;;;;5090206;28;20093;-75
2022/08/09 10:39:43;;;;;;;0.82;0.55;;;;;;;;;;5094538;28;20020;-76
2022/08/09 10:42:12;;;;;;;1.98;0.77;;;;;;;;;;5094663;28;20082;-76
2022/08/09 10:44:38;;;;;;;1.08;0.88;;;;;;;;;;5077455;28;20027;-75
2022/08/09 10:47:25;;;;;;;1.70;0.93;;;;;;;;;;5077140;28;20024;-75
2022/08/09 10:53:43;;;;;;;0.65;0.55;;;;;;;;;;5002720;28;20045;-75
2022/08/09 10:56:14;;;;;;;0.63;0.63;;;;;;;;;;5001934;28;20061;-76
2022/08/09 10:58:40;;;;;;;0.70;0.50;;;;;;;;;;5066630;28;20047;-75
2022/08/09 11:01:31;;;;;;;0.50;0.50;;;;;;;;;;5063812;28;20023;-75
2022/08/09 11:04:12;;;;;;;0.80;0.52;;;;;;;;;;5098104;28;20050;-75
2022/08/09 11:06:41;;;;;;;1.15;1.00;;;;;;;;;;5097929;28;20084;-76
2022/08/09 11:09:07;;;;;;;0.60;0.60;;;;;;;;;;5080373;28;20108;-75
2022/08/09 11:12:09;;;;;;;1.25;0.50;;;;;;;;;;5079829;28;20024;-75
2022/08/09 11:14:43;;;;;;;1.35;0.55;;;;;;;;;;5080109;28;20031;-75
2022/08/09 11:17:12;;;;;;;1.10;0.85;;;;;;;;;;5098077;28;20081;-76
2022/08/09 11:20:00;;;;;;;0.70;0.70;;;;;;;;;;5097956;28;20031;-76
2022/08/09 11:22:46;;;;;;;1.02;0.90;;;;;;;;;;5097793;28;20031;-74
2022/08/09 11:25:23;;;;;;;2.50;0.68;;;;;;;;;;5097915;28;20433;-74
2022/08/09 11:27:52;;;;;;;0.55;0.50;;;;;;;;;;5079907;28;20442;-74
2022/08/09 11:30:20;;;;;;;0.60;0.60;;;;;;;;;;5098468;28;20114;-74
2022/08/09 11:32:50;;;;;;;0.82;0.68;;;;;;;;;;5095671;28;20028;-80
2022/08/09 11:35:21;;;;;;;0.38;0.38;;;;;;;;;;5081964;28;20035;-79
2022/08/09 11:37:48;;;;;;;0.65;0.40;;;;;;;;;;5087202;28;20358;-79
2022/08/09 11:40:30;;;;;;;0.68;0.50;;;;;;;;;;5097491;28;20028;-78
2022/08/09 11:42:59;;;;;;;10.95;1.75;;;;;;;;;;5096692;28;20032;-81
2022/08/09 11:45:28;;;;;;;2.45;1.60;;;;;;;;;;5079076;28;20335;-81
2022/08/09 11:47:56;;;;;;;0.50;0.50;;;;;;;;;;5097026;28;20548;-80
2022/08/09 11:50:22;;;;;;;0.40;0.40;;;;;;;;;;5083054;28;20036;-77
2022/08/09 11:52:59;;;;;;;0.40;0.40;;;;;;;;;;5097046;28;20038;-81
2022/08/09 11:55:32;;;;;;;0.80;0.65;;;;;;;;;;5093841;28;20034;-82
2022/08/09 11:58:22;;;;;;;0.80;0.80;;;;;;;;;;5097215;28;20043;-82
2022/08/09 12:01:16;;;;;;;0.75;0.70;;;;;;;;;;5082103;28;20118;-81
2022/08/09 12:03:44;;;;;;;0.90;0.90;;;;;;;;;;5087845;28;20035;-83
2022/08/09 12:06:11;;;;;;;1.30;0.77;;;;;;;;;;5090351;28;20024;-81
2022/08/09 12:08:43;;;;;;;0.93;0.50;;;;;;;;;;5076422;28;20035;-80
2022/08/09 12:11:11;;;;;;;0.60;0.60;;;;;;;;;;5094066;28;20016;-79
2022/08/09 12:13:41;;;;;;;0.50;0.50;;;;;;;;;;5077516;28;20046;-79
2022/08/09 12:16:18;;;;;;;1.05;0.55;;;;;;;;;;5078853;28;20017;-82
2022/08/09 12:18:48;;;;;;;0.77;0.70;;;;;;;;;;5104360;28;20061;-83
2022/08/09 12:21:24;;;;;;;0.70;0.60;;;;;;;;;;5094900;28;20127;-77
2022/08/09 12:23:50;;;;;;;0.52;0.50;;;;;;;;;;5078620;28;20174;-78
2022/08/09 12:26:18;;;;;;;0.80;0.65;;;;;;;;;;5080039;28;20107;-80
2022/08/09 12:28:53;;;;;;;0.95;0.80;;;;;;;;;;5061200;28;20349;-79
2022/08/09 12:31:26;;;;;;;1.60;0.70;;;;;;;;;;5100940;28;20448;-81
2022/08/09 12:33:54;;;;;;;0.85;0.55;;;;;;;;;;5077472;28;20038;-78
2022/08/09 12:36:22;;;;;;;0.57;0.57;;;;;;;;;;5093328;28;20020;-82
2022/08/09 12:38:50;;;;;;;1.10;1.00;;;;;;;;;;5095933;28;20035;-80
2022/08/09 12:41:18;;;;;;;0.40;0.40;;;;;;;;;;5101927;28;20028;-82
2022/08/09 12:43:46;;;;;;;0.93;0.93;;;;;;;;;;5077544;28;20426;-81
2022/08/09 12:46:12;;;;;;;5.35;4.28;;;;;;;;;;5078003;28;20035;-81
2022/08/09 12:48:37;;;;;;;20.40;15.93;;;;;;;;;;5077182;28;20032;-82
2022/08/09 12:51:03;;;;;;;20.60;14.57;;;;;;;;;;5096170;28;20036;-81
2022/08/09 12:53:30;;;;;;;2.03;1.42;;;;;;;;;;5077934;28;20016;-82
2022/08/09 12:56:04;;;;;;;43.85;35.40;;;;;;;;;;5093783;28;20081;-80
2022/08/09 12:58:30;;;;;;;18.27;16.33;;;;;;;;;;5092182;28;20031;-80
2022/08/09 13:00:55;;;;;;;6.03;3.58;;;;;;;;;;5092390;28;20034;-80
2022/08/09 13:03:37;;;;;;;1.52;1.42;;;;;;;;;;5095871;28;20092;-79
2022/08/09 13:06:05;;;;;;;;;;;;;;;;;;5091650;28;20020;-80
2022/08/09 13:08:31;;;;;;;0.70;0.70;;;;;;;;;;5079257;28;19912;-80
2022/08/09 13:10:59;;;;;;;1.15;0.98;;;;;;;;;;5093634;28;20039;-80
2022/08/09 13:13:30;;;;;;;1.05;0.82;;;;;;;;;;5074764;28;20070;-82
2022/08/09 13:16:03;;;;;;;0.82;0.60;;;;;;;;;;5074852;28;20024;-82
2022/08/09 13:18:41;;;;;;;1.25;0.75;;;;;;;;;;5094480;28;20127;-81
2022/08/09 13:21:24;;;;;;;1.13;0.95;;;;;;;;;;5077030;28;20521;-80
2022/08/09 13:23:58;;;;;;;1.15;1.05;;;;;;;;;;5061713;28;20361;-80
2022/08/09 13:26:50;;;;;;;7.90;5.75;;;;;;;;;;5101244;28;20333;-82
2022/08/09 13:29:19;;;;;;;10.25;8.25;;;;;;;;;;5085939;28;20044;-78
2022/08/09 13:32:00;;;;;;;3.78;2.65;;;;;;;;;;5076836;28;20028;-79
2022/08/09 13:34:27;;;;;;;2.25;1.38;;;;;;;;;;5071350;28;20385;-77
2022/08/09 13:36:55;;;;;;;4.05;3.05;;;;;;;;;;5089711;28;20090;-76
2022/08/09 13:40:14;;;;;;;9.75;6.50;;;;;;;;;;5058626;28;20059;-76
2022/08/09 13:42:43;;;;;;;12.70;9.00;;;;;;;;;;5091978;28;20044;-75
2022/08/09 13:45:10;;;;;;;5.85;4.15;;;;;;;;;;5092091;28;20016;-76
2022/08/09 13:47:37;;;;;;;2.53;2.20;;;;;;;;;;5075175;28;20123;-76
2022/08/09 13:50:11;;;;;;;1.08;1.00;;;;;;;;;;5092915;28;20104;-76
2022/08/09 13:52:38;;;;;;;2.42;1.50;;;;;;;;;;5093730;28;20028;-76
2022/08/09 13:55:05;;;;;;;3.13;2.20;;;;;;;;;;5078917;28;20028;-76
2022/08/09 13:57:33;;;;;;;27.98;21.20;;;;;;;;;;5089925;28;20115;-76
2022/08/09 14:00:03;;;;;;;11.73;8.50;;;;;;;;;;5093786;28;20024;-75
2022/08/09 14:02:29;;;;;;;5.63;3.47;;;;;;;;;;5092557;28;20168;-77
2022/08/09 14:04:56;;;;;;;3.90;3.22;;;;;;;;;;5091441;28;20442;-77
2022/08/09 14:07:24;;;;;;;1.88;1.30;;;;;;;;;;5092389;28;20055;-76
2022/08/09 14:09:52;;;;;;;1.75;1.00;;;;;;;;;;5091382;28;20035;-76
2022/08/09 14:12:19;;;;;;;1.27;0.85;;;;;;;;;;5094310;28;20016;-75
2022/08/09 14:14:45;;;;;;;0.65;0.60;;;;;;;;;;5086578;28;20038;-79
2022/08/09 14:17:13;;;;;;;0.68;0.60;;;;;;;;;;5091466;28;20027;-81
2022/08/09 14:19:38;;;;;;;0.70;0.70;;;;;;;;;;5093637;28;20032;-86
2022/08/09 14:22:06;;;;;;;1.73;1.17;;;;;;;;;;5096385;28;20030;-78
2022/08/09 14:24:33;;;;;;;2.47;0.93;;;;;;;;;;5082021;28;20020;-82
2022/08/09 14:26:59;;;;;;;1.02;0.90;;;;;;;;;;5080799;28;20040;-83
2022/08/09 14:29:25;;;;;;;0.90;0.68;;;;;;;;;;5062214;28;20032;-82
2022/08/09 14:31:51;;;;;;;1.13;0.75;;;;;;;;;;5097346;28;20031;-83
2022/08/09 14:34:19;;;;;;;3.45;1.85;;;;;;;;;;5098637;28;20027;-79
2022/08/09 14:36:46;;;;;;;1.35;1.25;;;;;;;;;;5097452;28;20032;-83
2022/08/09 14:39:14;;;;;;;1.35;0.95;;;;;;;;;;5096993;28;20052;-80
2022/08/09 14:41:39;;;;;;;0.70;0.57;;;;;;;;;;5078929;28;20119;-84
2022/08/09 14:44:05;;;;;;;0.80;0.77;;;;;;;;;;5082512;28;20099;-79
2022/08/09 14:46:30;;;;;;;0.47;0.47;;;;;;;;;;5110123;28;20020;-83
2022/08/09 14:48:55;;;;;;;0.95;0.80;;;;;;;;;;5111500;28;20038;-80
2022/08/09 14:51:23;;;;;;;1.08;0.98;;;;;;;;;;5107738;28;20027;-82
2022/08/09 14:53:49;;;;;;;2.83;1.63;;;;;;;;;;5103693;28;20024;-84
2022/08/09 14:56:14;;;;;;;2.95;1.55;;;;;;;;;;5097832;28;20024;-81
2022/08/09 14:58:39;;;;;;;11.63;6.22;;;;;;;;;;5105211;28;20340;-82
2022/08/09 15:01:05;;;;;;;1.60;1.08;;;;;;;;;;5079164;28;20032;-81